createdAt,value
2019-05-20T00:04:17.690Z,11.6
2019-05-20T00:09:20.194Z,11.6
2019-05-20T00:14:22.607Z,11.5
2019-05-20T00:19:25.089Z,11.4
2019-05-20T00:24:27.625Z,11.4
2019-05-20T00:29:29.975Z,11.3
2019-05-20T00:34:34.868Z,11.3
2019-05-20T00:39:34.889Z,11.4
2019-05-20T00:44:37.351Z,11.4
2019-05-20T00:49:39.835Z,11.5
2019-05-20T00:54:42.276Z,11.6
2019-05-20T00:59:44.743Z,11.7
2019-05-20T01:04:47.237Z,11.8
2019-05-20T01:09:49.742Z,11.9
2019-05-20T01:14:52.096Z,12
2019-05-20T01:19:54.586Z,12.1
2019-05-20T01:24:57.161Z,12.2
2019-05-20T01:29:59.478Z,12.3
2019-05-20T01:35:02.041Z,12.3
2019-05-20T01:40:04.400Z,12.4
2019-05-20T01:45:06.845Z,12.4
2019-05-20T01:50:09.311Z,12.5
2019-05-20T01:55:11.810Z,12.5
2019-05-20T02:00:14.261Z,12.6
2019-05-20T02:05:16.682Z,12.6
2019-05-20T02:10:19.134Z,12.7
2019-05-20T02:15:21.628Z,12.7
2019-05-20T02:20:24.056Z,12.6
2019-05-20T02:25:26.526Z,12.6
2019-05-20T02:30:28.964Z,12.5
2019-05-20T02:35:31.431Z,12.5
2019-05-20T02:40:33.920Z,12.4
2019-05-20T02:45:36.370Z,12.3
2019-05-20T02:50:38.890Z,12.2
2019-05-20T02:55:41.289Z,12.1
2019-05-20T03:00:43.723Z,12
2019-05-20T03:05:46.192Z,11.9
2019-05-20T03:10:48.629Z,11.8
2019-05-20T03:15:51.092Z,11.8
2019-05-20T03:25:56.032Z,11.5
2019-05-20T03:30:58.481Z,11.4
2019-05-20T03:36:00.983Z,11.4
2019-05-20T03:41:03.385Z,11.2
2019-05-20T03:46:05.834Z,11.1
2019-05-20T03:51:08.279Z,11.1
2019-05-20T03:56:10.784Z,11.1
2019-05-20T04:01:13.186Z,11.2
2019-05-20T04:06:15.730Z,11.2
2019-05-20T04:11:18.127Z,11.4
2019-05-20T04:16:20.671Z,11.5
2019-05-20T04:21:23.237Z,11.7
2019-05-20T04:26:25.525Z,11.8
2019-05-20T04:31:27.987Z,12
2019-05-20T04:36:30.445Z,12.2
2019-05-20T04:41:35.543Z,12.4
2019-05-20T04:46:35.345Z,12.7
2019-05-20T04:51:37.807Z,13
2019-05-20T04:56:40.259Z,13.3
2019-05-20T05:01:42.890Z,13.5
2019-05-20T05:06:45.222Z,13.8
2019-05-20T05:11:47.609Z,14
2019-05-20T05:16:50.091Z,14.3
2019-05-20T05:21:52.522Z,14.4
2019-05-20T05:26:54.991Z,14.5
2019-05-20T05:31:57.450Z,14.6
2019-05-20T05:36:59.934Z,14.7
2019-05-20T05:42:02.403Z,15
2019-05-20T05:47:04.813Z,15.3
2019-05-20T05:52:07.275Z,15.7
2019-05-20T05:57:09.738Z,16.1
2019-05-20T06:02:12.326Z,16.8
2019-05-20T06:07:14.649Z,17.5
2019-05-20T06:12:17.194Z,18.3
2019-05-20T06:17:19.601Z,18.7
2019-05-20T06:22:22.016Z,18.7
2019-05-20T06:27:24.485Z,18.8
2019-05-20T06:37:29.520Z,20.8
2019-05-20T06:42:31.903Z,22.2
2019-05-20T06:47:34.398Z,23
2019-05-20T06:52:36.781Z,23
2019-05-20T06:57:39.339Z,22.7
2019-05-20T07:02:41.691Z,22.6
2019-05-20T07:07:44.183Z,22.2
2019-05-20T07:12:46.615Z,21.8
2019-05-20T07:17:49.096Z,21.7
2019-05-20T07:22:55.544Z,21.5
2019-05-20T07:27:54.040Z,21.4
2019-05-20T07:32:56.474Z,21.4
2019-05-20T07:37:58.929Z,21.4
2019-05-20T07:43:01.461Z,21.4
2019-05-20T07:48:03.864Z,21.7
2019-05-20T07:53:06.299Z,22.1
2019-05-20T07:58:08.775Z,22.5
2019-05-20T08:03:11.211Z,22.7
2019-05-20T08:08:13.697Z,22.4
2019-05-20T08:13:16.138Z,22.2
2019-05-20T08:18:20.202Z,22.1
2019-05-20T08:23:21.034Z,22.2
2019-05-20T08:28:23.513Z,22.2
2019-05-20T08:33:25.967Z,22.2
2019-05-20T08:38:28.409Z,22.3
2019-05-20T08:43:30.899Z,22.3
2019-05-20T08:48:33.344Z,22.4
2019-05-20T08:53:35.797Z,22.5
2019-05-20T08:58:38.284Z,22.5
2019-05-20T09:03:40.700Z,22.7
2019-05-20T09:08:43.244Z,23.1
2019-05-20T09:13:46.016Z,23.5
2019-05-20T09:18:48.140Z,23.7
2019-05-20T09:23:50.543Z,23.7
2019-05-20T09:28:53.125Z,23.7
2019-05-20T09:33:55.584Z,23.4
2019-05-20T09:38:58.043Z,22.9
2019-05-20T09:44:00.378Z,22.4
2019-05-20T09:49:02.856Z,21.9
2019-05-20T09:54:05.308Z,21.5
2019-05-20T09:59:07.812Z,21.3
2019-05-20T10:04:10.228Z,21
2019-05-20T10:09:12.661Z,20.9
2019-05-20T10:14:15.125Z,21
2019-05-20T10:19:17.576Z,21.3
2019-05-20T10:24:20.054Z,21.6
2019-05-20T10:29:22.546Z,21.8
2019-05-20T10:34:25.025Z,22.1
2019-05-20T10:39:27.438Z,22.3
2019-05-20T10:44:29.874Z,22.4
2019-05-20T10:49:32.370Z,22.5
2019-05-20T10:54:35.125Z,22.5
2019-05-20T10:59:37.260Z,22.5
2019-05-20T11:04:39.806Z,22.4
2019-05-20T11:09:42.243Z,22.3
2019-05-20T11:14:44.632Z,22.2
2019-05-20T11:19:47.094Z,22
2019-05-20T11:24:49.596Z,21.7
2019-05-20T11:29:52.053Z,21.2
2019-05-20T11:34:54.470Z,20.7
2019-05-20T11:39:56.928Z,20.1
2019-05-20T11:44:59.453Z,19.6
2019-05-20T11:50:02.265Z,19.2
2019-05-20T11:55:04.470Z,19
2019-05-20T12:00:06.951Z,18.8
2019-05-20T12:05:09.228Z,18.7
2019-05-20T12:10:11.691Z,18.5
2019-05-20T12:15:14.148Z,18.5
2019-05-20T12:20:16.605Z,18.5
2019-05-20T12:25:19.233Z,18.5
2019-05-20T12:30:21.648Z,18.5
2019-05-20T12:35:23.964Z,18.5
2019-05-20T12:40:26.437Z,18.5
2019-05-20T12:45:28.976Z,18.5
2019-05-20T12:50:31.342Z,18.5
2019-05-20T12:55:33.849Z,18.5
2019-05-20T13:00:36.262Z,18.3
2019-05-20T13:05:38.781Z,18.2
2019-05-20T13:10:41.261Z,18.2
2019-05-20T13:15:43.645Z,18.4
2019-05-20T13:20:46.101Z,18.6
2019-05-20T13:25:48.639Z,18.9
2019-05-20T13:30:51.032Z,19
2019-05-20T13:35:53.491Z,19
2019-05-20T13:40:55.929Z,19.1
2019-05-20T13:45:58.573Z,19.3
2019-05-20T13:51:00.847Z,19.3
2019-05-20T13:56:03.356Z,19.2
2019-05-20T14:01:05.760Z,18.9
2019-05-20T14:06:08.217Z,18.6
2019-05-20T14:11:10.681Z,18.3
2019-05-20T14:16:13.134Z,17.8
2019-05-20T14:21:15.593Z,17.2
2019-05-20T14:26:18.061Z,16.8
2019-05-20T14:31:20.546Z,16.5
2019-05-20T14:36:38.271Z,16.1
2019-05-20T14:41:25.437Z,15.7
2019-05-20T14:46:28.018Z,15.4
2019-05-20T14:51:30.327Z,15.4
2019-05-20T14:56:32.803Z,15.8
2019-05-20T15:01:35.268Z,16.1
2019-05-20T15:06:37.918Z,16.4
2019-05-20T15:11:40.156Z,17.3
2019-05-20T15:16:42.624Z,18
2019-05-20T15:21:45.516Z,18.5
2019-05-20T15:26:47.556Z,18.8
2019-05-20T15:31:50.027Z,18.8
2019-05-20T15:36:52.493Z,18.6
2019-05-20T15:41:54.974Z,18.3
2019-05-20T15:46:57.435Z,18
2019-05-20T15:51:59.947Z,17.8
2019-05-20T15:57:02.311Z,17.8
2019-05-20T16:02:04.799Z,18
2019-05-20T16:07:07.322Z,18.2
2019-05-20T16:12:09.663Z,18.2
2019-05-20T16:17:12.121Z,18.3
2019-05-20T16:22:14.605Z,18.2
2019-05-20T16:27:17.052Z,18
2019-05-20T16:32:19.563Z,18
2019-05-20T16:37:21.958Z,17.8
2019-05-20T16:42:24.454Z,17.6
2019-05-20T16:47:26.996Z,17.3
2019-05-20T16:52:30.585Z,17.2
2019-05-20T16:57:31.835Z,17
2019-05-20T17:02:34.264Z,16.7
2019-05-20T17:07:36.760Z,16.4
2019-05-20T17:12:39.166Z,16.1
2019-05-20T17:17:41.700Z,15.9
2019-05-20T17:22:44.172Z,15.7
2019-05-20T17:27:46.529Z,15.5
2019-05-20T17:32:49.042Z,15.4
2019-05-20T17:37:54.794Z,15.4
2019-05-20T17:42:53.900Z,15.3
2019-05-20T17:47:56.365Z,15.2
2019-05-20T17:52:58.958Z,15.1
2019-05-20T17:58:01.281Z,15
2019-05-20T18:03:03.806Z,14.9
2019-05-20T18:08:06.241Z,14.9
2019-05-20T18:13:08.654Z,14.8
2019-05-20T18:18:11.113Z,14.8
2019-05-20T18:23:13.606Z,14.7
2019-05-20T18:28:16.053Z,14.6
2019-05-20T18:33:18.501Z,14.5
2019-05-20T18:38:20.969Z,14.4
2019-05-20T18:43:23.399Z,14.3
2019-05-20T18:48:25.944Z,14.4
2019-05-20T18:53:28.340Z,14.3
2019-05-20T18:58:30.833Z,14.3
2019-05-20T19:03:33.969Z,14.2
2019-05-20T19:08:35.700Z,14.1
2019-05-20T19:13:38.156Z,14
2019-05-20T19:18:40.809Z,13.9
2019-05-20T19:23:43.092Z,13.8
2019-05-20T19:28:45.527Z,13.8
2019-05-20T19:33:47.990Z,13.7
2019-05-20T19:38:50.455Z,13.7
2019-05-20T19:43:52.938Z,13.6
2019-05-20T19:48:55.435Z,13.4
2019-05-20T19:53:57.828Z,13.3
2019-05-20T19:59:00.286Z,13.1
2019-05-20T20:04:02.899Z,13
2019-05-20T20:09:05.185Z,13
2019-05-20T20:14:07.797Z,12.8
2019-05-20T20:19:10.192Z,12.7
2019-05-20T20:24:12.559Z,12.6
2019-05-20T20:29:15.021Z,12.5
2019-05-20T20:34:17.487Z,12.5
2019-05-20T20:39:19.926Z,12.4
2019-05-20T20:44:23.080Z,12.4
2019-05-20T20:49:24.940Z,12.5
2019-05-20T20:54:27.359Z,12.5
2019-05-20T20:59:29.768Z,12.5
2019-05-20T21:04:32.235Z,12.5
2019-05-20T21:09:34.758Z,12.4
2019-05-20T21:14:37.143Z,12.4
2019-05-20T21:19:39.695Z,12.3
2019-05-20T21:24:42.046Z,12.3
2019-05-20T21:29:44.562Z,12.2
2019-05-20T21:34:46.984Z,12.2
2019-05-20T21:39:49.425Z,12.1
2019-05-20T21:44:51.924Z,12
2019-05-20T21:49:54.439Z,11.9
2019-05-20T21:54:56.813Z,11.8
2019-05-20T21:59:59.278Z,11.7
2019-05-20T22:05:01.839Z,11.5
2019-05-20T22:10:04.200Z,11.4
2019-05-20T22:15:06.713Z,11.2
2019-05-20T22:20:09.228Z,11.1
2019-05-20T22:25:11.725Z,11.1
2019-05-20T22:30:14.016Z,11
2019-05-20T22:35:16.468Z,11.1
2019-05-20T22:40:18.953Z,11.1
2019-05-20T22:45:21.381Z,11.2
2019-05-20T22:50:23.906Z,11.2
2019-05-20T22:55:26.286Z,11.2
2019-05-20T23:00:28.768Z,11.3
2019-05-20T23:05:31.237Z,11.3
2019-05-20T23:10:33.833Z,11.4
2019-05-20T23:15:36.134Z,11.4
2019-05-20T23:20:38.787Z,11.3
2019-05-20T23:25:41.068Z,11.3
2019-05-20T23:30:43.512Z,11.2
2019-05-20T23:35:45.978Z,11.2
2019-05-20T23:40:48.471Z,11.2
2019-05-20T23:45:50.891Z,11.2
2019-05-20T23:50:53.399Z,11.2
2019-05-20T23:55:55.830Z,11.3
